Aviation Digital Data Service (ADDS)

Output produced by METARs form (1300 UTC 26 March 2019)
found at http://www.aviationweather.gov/metar/data/
 
Forecast for: RJNS (SHIZOUKA , JP)
Text: TAF RJNS 261105Z 2612/2718 27015KT 9999 FEW030
Forecast period: 1200 UTC 26 March 2019 to 1800 UTC 27 March 2019
Forecast type: FROM: standard forecast or significant change
Winds: from the W (270 degrees) at 17 MPH (15 knots; 7.7 m/s)
Visibility: 6 or more miles 10+ km)
Ceiling: at least 12,000 feet AGL
Clouds: few clouds at 3000 feet AGL
Weather: no significant weather forecast for this period
Text: TEMPO 2700/2709 25020G32KT
Forecast period: 0000 to 0900 UTC 27 March 2019
Forecast type: TEMPORARY: The following changes expected for less than half the time period
Winds: from the WSW (250 degrees) at 23 MPH (20 knots; 10.3 m/s)
gusting to 37 MPH (32 knots; 16.5 m/s)
Visibility: missing
Ceiling: unknown
Clouds: missing
Weather: no significant weather forecast for this period